createdAt,value
2023-01-08T00:00:12.397Z,96506.13
2023-01-08T00:02:39.083Z,96508.19
2023-01-08T00:05:06.177Z,96502.63
2023-01-08T00:07:34.018Z,96511.03
2023-01-08T00:10:00.701Z,96530.53
2023-01-08T00:12:27.315Z,96523.53
2023-01-08T00:14:53.979Z,96514.72
2023-01-08T00:17:20.666Z,96535.66
2023-01-08T00:19:47.522Z,96526.59
2023-01-08T00:22:14.124Z,96519.16
2023-01-08T00:24:40.737Z,96528.84
2023-01-08T00:27:07.395Z,96524.09
2023-01-08T00:29:34.190Z,96518.81
2023-01-08T00:32:00.831Z,96514.22
2023-01-08T00:34:27.496Z,96496.31
2023-01-08T00:36:54.135Z,96498.72
2023-01-08T00:39:20.853Z,96482.63
2023-01-08T00:41:47.478Z,96475.38
2023-01-08T00:44:14.278Z,96465.63
2023-01-08T00:46:40.934Z,96466.63
2023-01-08T00:49:08.630Z,96457.94
2023-01-08T00:51:36.971Z,96452.97
2023-01-08T00:54:03.783Z,96449.66
2023-01-08T00:56:30.382Z,96442.31
2023-01-08T00:58:57.032Z,96433.19
2023-01-08T01:01:23.904Z,96430.09
2023-01-08T01:03:50.611Z,96432.66
2023-01-08T01:06:17.361Z,96425.66
2023-01-08T01:08:44.092Z,96413.38
2023-01-08T01:11:12.819Z,96415.81
2023-01-08T01:13:39.436Z,96407.59
2023-01-08T01:16:06.229Z,96399.69
2023-01-08T01:18:32.989Z,96361.19
2023-01-08T01:20:59.637Z,96372.50
2023-01-08T01:23:26.242Z,96365.59
2023-01-08T01:25:52.898Z,96366.44
2023-01-08T01:28:19.731Z,96371.13
2023-01-08T01:30:46.405Z,96369.84
2023-01-08T01:33:13.035Z,96365.38
2023-01-08T01:35:39.760Z,96363.81
2023-01-08T01:38:06.409Z,96364.13
2023-01-08T01:40:33.088Z,96367.78
2023-01-08T01:42:59.749Z,96365.47
2023-01-08T01:45:26.910Z,96367.94
2023-01-08T01:48:03.678Z,96370.75
2023-01-08T01:50:43.456Z,96362.06
2023-01-08T01:53:17.511Z,96352.69
2023-01-08T01:55:44.294Z,96348.50
2023-01-08T01:58:15.467Z,96349.22
2023-01-08T02:00:42.422Z,96344.94
2023-01-08T02:03:10.435Z,96338.38
2023-01-08T02:06:05.243Z,96329.16
2023-01-08T02:08:53.200Z,96327.81
2023-01-08T02:11:26.637Z,96336.91
2023-01-08T02:14:11.735Z,96342.66
2023-01-08T02:16:55.270Z,96346.38
2023-01-08T02:19:50.037Z,96346.56
2023-01-08T02:22:30.278Z,96343.81
2023-01-08T02:25:01.682Z,96342.56
2023-01-08T02:27:29.146Z,96326.47
2023-01-08T02:29:55.932Z,96330.66
2023-01-08T02:32:26.829Z,96327.22
2023-01-08T02:34:54.449Z,96341.66
2023-01-08T02:37:21.140Z,96339.44
2023-01-08T02:39:56.888Z,96339.00
2023-01-08T02:42:51.272Z,96343.28
2023-01-08T02:45:29.373Z,96357.31
2023-01-08T02:48:33.756Z,96349.19
2023-01-08T02:51:15.487Z,96370.56
2023-01-08T02:53:44.736Z,96384.84
2023-01-08T02:56:13.516Z,96392.13
2023-01-08T02:58:40.207Z,96400.78
2023-01-08T03:01:09.350Z,96411.47
2023-01-08T03:03:36.006Z,96410.69
2023-01-08T03:06:10.577Z,96409.41
2023-01-08T03:08:39.256Z,96400.44
2023-01-08T03:11:07.441Z,96400.22
2023-01-08T03:13:58.827Z,96406.03
2023-01-08T03:16:46.665Z,96402.66
2023-01-08T03:19:16.783Z,96402.88
2023-01-08T03:21:43.481Z,96406.13
2023-01-08T03:24:11.238Z,96405.72
2023-01-08T03:26:37.886Z,96395.28
2023-01-08T03:29:04.488Z,96402.00
2023-01-08T03:31:31.103Z,96406.00
2023-01-08T03:33:57.694Z,96402.84
2023-01-08T03:36:25.504Z,96402.00
2023-01-08T03:39:18.292Z,96408.50
2023-01-08T03:41:44.902Z,96400.31
2023-01-08T03:44:11.490Z,96406.44
2023-01-08T03:46:40.430Z,96405.25
2023-01-08T03:49:07.208Z,96397.34
2023-01-08T03:51:43.844Z,96403.72
2023-01-08T03:54:15.260Z,96408.09
2023-01-08T03:56:41.993Z,96395.72
2023-01-08T03:59:08.623Z,96388.84
2023-01-08T04:01:35.339Z,96384.09
2023-01-08T04:04:02.134Z,96394.69
2023-01-08T04:06:28.789Z,96380.22
2023-01-08T04:08:55.380Z,96380.38
2023-01-08T04:11:21.976Z,96370.47
2023-01-08T04:13:48.626Z,96385.44
2023-01-08T04:16:15.339Z,96381.09
2023-01-08T04:18:41.964Z,96382.56
2023-01-08T04:21:08.608Z,96378.56
2023-01-08T04:23:35.273Z,96375.06
2023-01-08T04:26:08.287Z,96381.38
2023-01-08T04:28:35.208Z,96378.56
2023-01-08T04:31:08.407Z,96367.75
2023-01-08T04:33:35.059Z,96370.97
2023-01-08T04:36:02.298Z,96358.25
2023-01-08T04:38:28.957Z,96363.16
2023-01-08T04:40:59.541Z,96361.06
2023-01-08T04:43:26.279Z,96344.78
2023-01-08T04:45:53.084Z,96342.53
2023-01-08T04:48:19.865Z,96341.72
2023-01-08T04:50:46.532Z,96325.50
2023-01-08T04:53:13.188Z,96323.50
2023-01-08T04:55:39.967Z,96319.53
2023-01-08T04:58:06.648Z,96321.00
2023-01-08T05:00:33.291Z,96305.00
2023-01-08T05:02:59.983Z,96319.72
2023-01-08T05:05:26.647Z,96320.31
2023-01-08T05:07:53.281Z,96328.69
2023-01-08T05:10:19.916Z,96324.66
2023-01-08T05:12:46.559Z,96335.50
2023-01-08T05:15:13.210Z,96307.66
2023-01-08T05:17:39.863Z,96321.59
2023-01-08T05:20:06.964Z,96310.91
2023-01-08T05:22:33.672Z,96298.25
2023-01-08T05:25:00.320Z,96280.88
2023-01-08T05:27:28.435Z,96294.09
2023-01-08T05:29:55.052Z,96281.06
2023-01-08T05:32:21.643Z,96294.22
2023-01-08T05:34:48.230Z,96304.63
2023-01-08T05:37:14.958Z,96293.78
2023-01-08T05:39:41.620Z,96282.25
2023-01-08T05:42:08.220Z,96280.16
2023-01-08T05:44:34.864Z,96276.03
2023-01-08T05:47:01.464Z,96274.88
2023-01-08T05:49:28.079Z,96280.22
2023-01-08T05:51:54.691Z,96296.09
2023-01-08T05:54:21.363Z,96299.97
2023-01-08T05:56:48.070Z,96295.03
2023-01-08T05:59:14.809Z,96295.19
2023-01-08T06:01:41.568Z,96306.03
2023-01-08T06:04:08.350Z,96306.16
2023-01-08T06:06:34.971Z,96318.50
2023-01-08T06:09:01.624Z,96326.91
2023-01-08T06:11:28.277Z,96313.84
2023-01-08T06:13:54.893Z,96321.44
2023-01-08T06:16:21.535Z,96314.91
2023-01-08T06:18:48.229Z,96317.13
2023-01-08T06:21:14.868Z,96310.81
2023-01-08T06:23:41.506Z,96306.47
2023-01-08T06:26:08.628Z,96296.19
2023-01-08T06:28:35.336Z,96323.81
2023-01-08T06:31:02.271Z,96337.13
2023-01-08T06:33:29.441Z,96330.28
2023-01-08T06:35:59.909Z,96339.34
2023-01-08T06:38:26.556Z,96349.16
2023-01-08T06:40:53.174Z,96352.66
2023-01-08T06:43:19.767Z,96362.50
2023-01-08T06:45:46.387Z,96354.28
2023-01-08T06:48:13.005Z,96363.72
2023-01-08T06:50:39.658Z,96370.13
2023-01-08T06:53:06.296Z,96367.53
2023-01-08T06:55:32.942Z,96367.97
2023-01-08T06:57:59.611Z,96365.00
2023-01-08T07:00:26.355Z,96357.53
2023-01-08T07:02:53.408Z,96353.44
2023-01-08T07:05:20.157Z,96349.50
2023-01-08T07:07:46.883Z,96340.19
2023-01-08T07:10:13.527Z,96347.50
2023-01-08T07:12:40.239Z,96345.16
2023-01-08T07:15:07.399Z,96347.03
2023-01-08T07:17:34.042Z,96341.59
2023-01-08T07:20:00.772Z,96340.91
2023-01-08T07:22:27.695Z,96343.72
2023-01-08T07:24:54.292Z,96344.19
2023-01-08T07:27:20.924Z,96353.63
2023-01-08T07:29:47.592Z,96350.56
2023-01-08T07:32:14.204Z,96347.53
2023-01-08T07:34:40.798Z,96354.19
2023-01-08T07:37:07.443Z,96360.50
2023-01-08T07:39:34.064Z,96356.41
2023-01-08T07:42:00.727Z,96355.72
2023-01-08T07:44:27.397Z,96354.22
2023-01-08T07:46:54.080Z,96351.78
2023-01-08T07:49:20.709Z,96358.28
2023-01-08T07:51:49.432Z,96360.38
2023-01-08T07:54:16.071Z,96360.50
2023-01-08T07:56:42.730Z,96367.28
2023-01-08T07:59:09.472Z,96364.94
2023-01-08T08:01:36.206Z,96363.91
2023-01-08T08:04:02.963Z,96367.94
2023-01-08T08:06:29.575Z,96363.78
2023-01-08T08:08:57.460Z,96368.22
2023-01-08T08:11:24.089Z,96372.69
2023-01-08T08:13:52.621Z,96377.44
2023-01-08T08:16:20.087Z,96374.16
2023-01-08T08:18:46.750Z,96378.25
2023-01-08T08:21:13.350Z,96391.66
2023-01-08T08:23:39.983Z,96385.47
2023-01-08T08:26:06.595Z,96372.75
2023-01-08T08:28:33.297Z,96380.69
2023-01-08T08:31:00.070Z,96365.38
2023-01-08T08:33:26.810Z,96365.66
2023-01-08T08:35:53.446Z,96369.38
2023-01-08T08:38:21.960Z,96364.00
2023-01-08T08:40:49.804Z,96357.16
2023-01-08T08:43:16.444Z,96359.50
2023-01-08T08:45:43.126Z,96353.91
2023-01-08T08:48:09.935Z,96351.25
2023-01-08T08:50:36.880Z,96344.81
2023-01-08T08:53:03.820Z,96335.50
2023-01-08T08:55:30.419Z,96343.53
2023-01-08T08:58:06.436Z,96333.63
2023-01-08T09:00:33.251Z,96322.31
2023-01-08T09:03:00.045Z,96327.44
2023-01-08T09:05:26.720Z,96319.63
2023-01-08T09:07:53.383Z,96313.31
2023-01-08T09:10:21.060Z,96320.66
2023-01-08T09:12:47.686Z,96318.91
2023-01-08T09:15:14.342Z,96315.78
2023-01-08T09:17:40.939Z,96312.41
2023-01-08T09:20:07.917Z,96309.94
2023-01-08T09:22:34.583Z,96313.69
2023-01-08T09:25:01.254Z,96315.09
2023-01-08T09:27:27.902Z,96308.66
2023-01-08T09:29:54.537Z,96302.59
2023-01-08T09:32:21.175Z,96310.75
2023-01-08T09:34:47.789Z,96302.84
2023-01-08T09:37:14.470Z,96301.19
2023-01-08T09:39:42.449Z,96307.50
2023-01-08T09:42:11.325Z,96304.13
2023-01-08T09:44:39.039Z,96301.13
2023-01-08T09:47:07.051Z,96299.59
2023-01-08T09:49:44.351Z,96301.25
2023-01-08T09:52:13.668Z,96300.16
2023-01-08T09:54:40.688Z,96287.81
2023-01-08T09:57:20.006Z,96281.38
2023-01-08T09:59:47.243Z,96288.50
2023-01-08T10:02:22.208Z,96273.69
2023-01-08T10:04:54.676Z,96271.59
2023-01-08T10:07:22.618Z,96267.25
2023-01-08T10:09:49.417Z,96263.28
2023-01-08T10:12:17.916Z,96262.38
2023-01-08T10:14:45.087Z,96250.22
2023-01-08T10:17:37.514Z,96252.31
2023-01-08T10:20:14.802Z,96237.16
2023-01-08T10:22:41.501Z,96236.22
2023-01-08T10:25:13.422Z,96236.66
2023-01-08T10:27:52.763Z,96235.84
2023-01-08T10:30:37.905Z,96219.38
2023-01-08T10:33:06.178Z,96214.59
2023-01-08T10:35:39.039Z,96196.75
2023-01-08T10:38:05.709Z,96190.41
2023-01-08T10:40:41.520Z,96179.00
2023-01-08T10:43:20.041Z,96169.44
2023-01-08T10:46:17.811Z,96181.53
2023-01-08T10:48:50.004Z,96167.66
2023-01-08T10:51:24.662Z,96165.78
2023-01-08T10:53:52.081Z,96167.75
2023-01-08T10:56:26.396Z,96171.56
2023-01-08T10:58:52.996Z,96152.25
2023-01-08T11:01:24.449Z,96149.00
2023-01-08T11:03:55.987Z,96147.69
2023-01-08T11:06:33.155Z,96143.63
2023-01-08T11:09:04.687Z,96152.59
2023-01-08T11:11:35.154Z,96160.19
2023-01-08T11:14:16.495Z,96166.66
2023-01-08T11:16:43.156Z,96169.44
2023-01-08T11:19:28.423Z,96163.56
2023-01-08T11:21:58.805Z,96164.63
2023-01-08T11:24:35.868Z,96160.09
2023-01-08T11:27:14.674Z,96148.13
2023-01-08T11:29:43.410Z,96151.31
2023-01-08T11:32:15.921Z,96150.81
2023-01-08T11:34:48.477Z,96149.56
2023-01-08T11:37:21.032Z,96153.75
2023-01-08T11:39:47.672Z,96147.41
2023-01-08T11:42:38.999Z,96129.09
2023-01-08T11:45:46.162Z,96134.94
2023-01-08T11:48:23.233Z,96127.13
2023-01-08T11:51:11.705Z,96113.09
2023-01-08T11:53:49.316Z,96118.81
2023-01-08T11:56:37.433Z,96125.03
2023-01-08T11:59:22.873Z,96116.72
2023-01-08T12:02:08.341Z,96124.56
2023-01-08T12:05:07.239Z,96126.63
2023-01-08T12:07:48.720Z,96116.41
2023-01-08T12:10:37.613Z,96104.97
2023-01-08T12:13:28.892Z,96112.53
2023-01-08T12:15:58.525Z,96103.44
2023-01-08T12:18:51.937Z,96097.09
2023-01-08T12:21:34.522Z,96094.41
2023-01-08T12:24:39.830Z,96088.38
2023-01-08T12:27:12.363Z,96092.22
2023-01-08T12:30:00.261Z,96076.94
2023-01-08T12:32:34.442Z,96068.75
2023-01-08T12:35:22.999Z,96064.94
2023-01-08T12:37:53.315Z,96061.34
2023-01-08T12:40:24.996Z,96063.91
2023-01-08T12:43:00.462Z,96058.84
2023-01-08T12:45:28.851Z,96054.44
2023-01-08T12:47:58.907Z,96049.97
2023-01-08T12:50:51.593Z,96046.50
2023-01-08T12:53:34.350Z,96044.03
2023-01-08T12:56:18.561Z,96045.22
2023-01-08T12:59:03.953Z,96035.28
2023-01-08T13:01:45.814Z,96021.41
2023-01-08T13:04:12.581Z,96020.28
2023-01-08T13:06:52.340Z,96010.09
2023-01-08T13:09:23.561Z,96002.63
2023-01-08T13:11:52.048Z,95991.97
2023-01-08T13:14:18.689Z,95965.84
2023-01-08T13:16:45.759Z,95964.56
2023-01-08T13:19:33.971Z,95960.09
2023-01-08T13:22:00.674Z,95958.94
2023-01-08T13:24:37.669Z,95948.56
2023-01-08T13:27:16.582Z,95948.88
2023-01-08T13:29:50.090Z,95947.56
2023-01-08T13:32:45.201Z,95933.34
2023-01-08T13:35:14.791Z,95923.88
2023-01-08T13:37:45.963Z,95923.41
2023-01-08T13:40:43.636Z,95910.88
2023-01-08T13:43:13.984Z,95909.16
2023-01-08T13:45:41.158Z,95902.97
2023-01-08T13:48:23.088Z,95906.25
2023-01-08T13:50:49.697Z,95895.50
2023-01-08T13:53:16.309Z,95905.16
2023-01-08T13:55:44.202Z,95897.13
2023-01-08T13:58:17.844Z,95903.63
2023-01-08T14:00:44.376Z,95901.66
2023-01-08T14:03:30.221Z,95903.31
2023-01-08T14:06:25.534Z,95893.78
2023-01-08T14:09:02.791Z,95893.53
2023-01-08T14:11:42.806Z,95903.22
2023-01-08T14:14:13.212Z,95906.72
2023-01-08T14:16:40.405Z,95890.16
2023-01-08T14:19:07.095Z,95885.31
2023-01-08T14:21:33.701Z,95878.56
2023-01-08T14:24:00.292Z,95871.53
2023-01-08T14:26:33.961Z,95867.63
2023-01-08T14:29:00.598Z,95857.94
2023-01-08T14:31:27.394Z,95862.19
2023-01-08T14:33:58.518Z,95856.25
2023-01-08T14:36:25.268Z,95858.75
2023-01-08T14:38:51.862Z,95868.38
2023-01-08T14:41:42.366Z,95861.28
2023-01-08T14:44:13.258Z,95832.16
2023-01-08T14:46:39.855Z,95835.06
2023-01-08T14:49:06.483Z,95829.41
2023-01-08T14:51:33.085Z,95839.47
2023-01-08T14:54:01.787Z,95836.31
2023-01-08T14:56:30.443Z,95831.75
2023-01-08T14:58:57.134Z,95837.19
2023-01-08T15:01:28.023Z,95827.28
2023-01-08T15:04:24.062Z,95831.09
2023-01-08T15:06:51.621Z,95816.16
2023-01-08T15:09:31.611Z,95813.13
2023-01-08T15:12:04.382Z,95795.75
2023-01-08T15:14:31.060Z,95809.72
2023-01-08T15:16:58.659Z,95793.72
2023-01-08T15:19:29.324Z,95793.47
2023-01-08T15:21:57.119Z,95788.44
2023-01-08T15:24:34.404Z,95784.19
2023-01-08T15:27:01.379Z,95773.31
2023-01-08T15:29:29.280Z,95777.38
2023-01-08T15:31:56.028Z,95774.91
2023-01-08T15:34:22.685Z,95776.78
2023-01-08T15:36:49.348Z,95772.50
2023-01-08T15:39:16.017Z,95765.97
2023-01-08T15:41:42.620Z,95760.59
2023-01-08T15:44:10.185Z,95762.72
2023-01-08T15:46:36.796Z,95754.19
2023-01-08T15:49:03.448Z,95767.59
2023-01-08T15:51:31.861Z,95767.94
2023-01-08T15:53:58.535Z,95753.44
2023-01-08T15:56:25.174Z,95741.41
2023-01-08T15:58:51.826Z,95734.44
2023-01-08T16:01:19.068Z,95736.03
2023-01-08T16:03:45.764Z,95742.44
2023-01-08T16:06:12.413Z,95735.31
2023-01-08T16:08:39.052Z,95709.72
2023-01-08T16:11:05.758Z,95725.25
2023-01-08T16:13:32.407Z,95727.69
2023-01-08T16:15:59.022Z,95705.66
2023-01-08T16:18:25.637Z,95710.06
2023-01-08T16:20:59.740Z,95720.38
2023-01-08T16:23:26.411Z,95718.44
2023-01-08T16:25:53.003Z,95698.69
2023-01-08T16:28:19.636Z,95712.16
2023-01-08T16:30:46.400Z,95715.41
2023-01-08T16:33:13.064Z,95713.38
2023-01-08T16:35:39.702Z,95700.44
2023-01-08T16:38:06.481Z,95707.44
2023-01-08T16:40:33.128Z,95694.50
2023-01-08T16:43:02.570Z,95707.19
2023-01-08T16:45:29.260Z,95698.97
2023-01-08T16:47:55.946Z,95706.88
2023-01-08T16:50:22.611Z,95703.94
2023-01-08T16:52:49.204Z,95695.97
2023-01-08T16:55:15.792Z,95689.69
2023-01-08T16:57:42.437Z,95689.97
2023-01-08T17:00:09.573Z,95680.59
2023-01-08T17:02:36.573Z,95684.53
2023-01-08T17:05:03.195Z,95681.75
2023-01-08T17:07:29.836Z,95689.00
2023-01-08T17:09:56.616Z,95692.56
2023-01-08T17:12:23.277Z,95698.97
2023-01-08T17:14:50.093Z,95698.25
2023-01-08T17:17:16.696Z,95692.81
2023-01-08T17:19:43.307Z,95698.13
2023-01-08T17:22:09.958Z,95705.44
2023-01-08T17:24:36.653Z,95684.63
2023-01-08T17:27:03.340Z,95677.06
2023-01-08T17:29:29.999Z,95684.38
2023-01-08T17:31:56.648Z,95666.59
2023-01-08T17:34:23.261Z,95672.19
2023-01-08T17:36:49.869Z,95655.94
2023-01-08T17:39:16.772Z,95664.56
2023-01-08T17:41:43.400Z,95661.06
2023-01-08T17:44:11.610Z,95663.56
2023-01-08T17:46:39.574Z,95664.66
2023-01-08T17:49:06.191Z,95667.38
2023-01-08T17:51:32.868Z,95661.78
2023-01-08T17:53:59.584Z,95663.91
2023-01-08T17:56:26.271Z,95657.72
2023-01-08T17:58:53.123Z,95650.72
2023-01-08T18:01:19.934Z,95646.66
2023-01-08T18:03:46.793Z,95649.19
2023-01-08T18:06:13.455Z,95646.50
2023-01-08T18:08:40.129Z,95646.56
2023-01-08T18:11:07.436Z,95636.16
2023-01-08T18:13:34.169Z,95632.94
2023-01-08T18:16:07.738Z,95623.59
2023-01-08T18:18:35.112Z,95602.44
2023-01-08T18:21:01.807Z,95607.81
2023-01-08T18:23:28.458Z,95610.75
2023-01-08T18:25:55.089Z,95605.56
2023-01-08T18:28:21.733Z,95611.09
2023-01-08T18:30:48.591Z,95607.03
2023-01-08T18:33:15.240Z,95606.47
2023-01-08T18:35:41.992Z,95608.81
2023-01-08T18:38:08.875Z,95617.72
2023-01-08T18:40:36.031Z,95631.94
2023-01-08T18:43:02.686Z,95627.66
2023-01-08T18:45:29.458Z,95622.78
2023-01-08T18:47:56.100Z,95620.84
2023-01-08T18:50:22.703Z,95613.63
2023-01-08T18:52:49.366Z,95618.53
2023-01-08T18:55:16.022Z,95612.47
2023-01-08T18:57:42.650Z,95627.25
2023-01-08T19:00:09.857Z,95619.22
2023-01-08T19:02:36.641Z,95608.19
2023-01-08T19:05:03.385Z,95585.63
2023-01-08T19:07:31.075Z,95582.69
2023-01-08T19:09:57.798Z,95584.66
2023-01-08T19:12:24.487Z,95569.22
2023-01-08T19:14:51.135Z,95569.78
2023-01-08T19:17:17.822Z,95574.56
2023-01-08T19:19:44.505Z,95597.56
2023-01-08T19:22:11.158Z,95599.09
2023-01-08T19:24:37.861Z,95595.34
2023-01-08T19:27:04.458Z,95618.38
2023-01-08T19:29:31.073Z,95615.09
2023-01-08T19:31:57.779Z,95588.88
2023-01-08T19:34:24.514Z,95616.47
2023-01-08T19:36:51.134Z,95611.94
2023-01-08T19:39:17.830Z,95610.81
2023-01-08T19:41:44.476Z,95605.19
2023-01-08T19:44:11.427Z,95610.25
2023-01-08T19:46:38.070Z,95614.13
2023-01-08T19:49:04.920Z,95602.69
2023-01-08T19:51:32.254Z,95601.56
2023-01-08T19:53:58.912Z,95592.13
2023-01-08T19:56:25.504Z,95597.56
2023-01-08T19:58:52.115Z,95596.91
2023-01-08T20:01:21.378Z,95596.47
2023-01-08T20:03:48.528Z,95583.16
2023-01-08T20:06:16.933Z,95589.41
2023-01-08T20:08:46.055Z,95593.69
2023-01-08T20:11:13.759Z,95607.66
2023-01-08T20:13:40.504Z,95602.28
2023-01-08T20:16:08.703Z,95595.41
2023-01-08T20:18:35.411Z,95604.00
2023-01-08T20:21:09.288Z,95602.44
2023-01-08T20:23:36.075Z,95602.38
2023-01-08T20:26:07.446Z,95603.25
2023-01-08T20:28:34.795Z,95596.50
2023-01-08T20:31:12.172Z,95590.53
2023-01-08T20:33:39.080Z,95597.00
2023-01-08T20:36:16.150Z,95596.44
2023-01-08T20:38:42.835Z,95591.41
2023-01-08T20:41:09.925Z,95599.06
2023-01-08T20:43:37.079Z,95582.22
2023-01-08T20:46:04.012Z,95591.34
2023-01-08T20:48:34.278Z,95589.66
2023-01-08T20:51:04.319Z,95583.78
2023-01-08T20:53:31.657Z,95567.06
2023-01-08T20:56:11.696Z,95574.41
2023-01-08T20:58:39.224Z,95578.28
2023-01-08T21:01:05.968Z,95579.34
2023-01-08T21:03:34.081Z,95578.13
2023-01-08T21:06:06.271Z,95574.91
2023-01-08T21:08:32.882Z,95575.84
2023-01-08T21:11:00.144Z,95568.50
2023-01-08T21:13:26.781Z,95575.25
2023-01-08T21:15:55.752Z,95570.28
2023-01-08T21:18:22.388Z,95563.69
2023-01-08T21:20:48.987Z,95574.97
2023-01-08T21:23:15.693Z,95553.31
2023-01-08T21:25:42.312Z,95564.09
2023-01-08T21:28:09.097Z,95566.59
2023-01-08T21:30:35.800Z,95560.44
2023-01-08T21:33:02.468Z,95564.91
2023-01-08T21:35:29.180Z,95561.41
2023-01-08T21:37:55.808Z,95569.19
2023-01-08T21:40:22.412Z,95575.59
2023-01-08T21:42:49.066Z,95558.75
2023-01-08T21:45:15.748Z,95562.69
2023-01-08T21:47:42.381Z,95553.91
2023-01-08T21:50:10.207Z,95552.59
2023-01-08T21:52:36.851Z,95549.19
2023-01-08T21:55:03.559Z,95546.34
2023-01-08T21:57:30.168Z,95543.06
2023-01-08T21:59:56.915Z,95535.34
2023-01-08T22:02:23.620Z,95532.81
2023-01-08T22:04:50.357Z,95531.81
2023-01-08T22:07:17.471Z,95533.91
2023-01-08T22:09:44.085Z,95521.84
2023-01-08T22:12:11.472Z,95531.59
2023-01-08T22:14:38.105Z,95526.72
2023-01-08T22:17:04.760Z,95527.59
2023-01-08T22:19:31.378Z,95529.31
2023-01-08T22:21:58.008Z,95527.19
2023-01-08T22:24:24.656Z,95540.06
2023-01-08T22:26:51.305Z,95534.69
2023-01-08T22:29:17.933Z,95542.56
2023-01-08T22:31:44.645Z,95544.41
2023-01-08T22:34:11.325Z,95531.94
2023-01-08T22:36:37.934Z,95539.63
2023-01-08T22:39:04.553Z,95537.81
2023-01-08T22:41:31.258Z,95523.22
2023-01-08T22:43:57.915Z,95527.78
2023-01-08T22:46:24.597Z,95523.47
2023-01-08T22:48:51.225Z,95525.97
2023-01-08T22:51:17.921Z,95518.25
2023-01-08T22:53:44.603Z,95521.91
2023-01-08T22:56:11.809Z,95528.97
2023-01-08T22:58:41.650Z,95529.41
2023-01-08T23:01:18.500Z,95535.31
2023-01-08T23:03:48.507Z,95523.34
2023-01-08T23:06:15.656Z,95510.63
2023-01-08T23:08:42.632Z,95513.06
2023-01-08T23:11:10.018Z,95520.22
2023-01-08T23:13:36.722Z,95499.41
2023-01-08T23:16:04.043Z,95468.91
2023-01-08T23:18:30.798Z,95509.78
2023-01-08T23:21:08.158Z,95526.94
2023-01-08T23:23:34.796Z,95514.66
2023-01-08T23:26:05.629Z,95511.63
2023-01-08T23:28:32.487Z,95519.75
2023-01-08T23:30:59.210Z,95520.38
2023-01-08T23:33:25.896Z,95517.56
2023-01-08T23:35:52.479Z,95523.16
2023-01-08T23:38:19.075Z,95514.38
2023-01-08T23:40:45.826Z,95516.09
2023-01-08T23:43:12.592Z,95502.97
2023-01-08T23:45:39.281Z,95517.97
2023-01-08T23:48:06.319Z,95516.91
2023-01-08T23:50:32.964Z,95518.53
2023-01-08T23:52:59.596Z,95517.16
2023-01-08T23:55:26.333Z,95514.13
2023-01-08T23:57:52.975Z,95501.81
